Time;durP1;ratioP1;P1;durP2;ratioP2;P2;SDS_P1;SDS_P2;PMS_P1;PMS_P2;Temp;Humidity;BMP_temperature;BMP_pressure;BME280_temperature;BME280_humidity;BME280_pressure;Samples;Min_cycle;Max_cycle;Signal;HPM_P1;HPM_P2
2021/12/10 00:00:41;;;;;;;15.35;5.15;;;1.70;99.90;;;;;;5070960;28;20024;-79
2021/12/10 00:03:12;;;;;;;10.52;4.43;;;1.60;99.90;;;;;;5062473;28;20024;-79
2021/12/10 00:05:50;;;;;;;14.13;5.22;;;1.50;99.90;;;;;;5072535;28;20476;-79
2021/12/10 00:08:16;;;;;;;14.10;5.95;;;1.50;99.90;;;;;;5072718;28;20542;-79
2021/12/10 00:10:45;;;;;;;17.27;6.70;;;1.50;99.90;;;;;;5071306;28;20481;-79
2021/12/10 00:13:11;;;;;;;10.18;4.38;;;1.50;99.90;;;;;;5071844;28;20022;-79
2021/12/10 00:15:39;;;;;;;11.70;5.13;;;1.70;99.90;;;;;;5071984;28;20457;-79
2021/12/10 00:18:08;;;;;;;18.73;5.43;;;1.70;99.90;;;;;;5072566;28;20025;-79
2021/12/10 00:20:37;;;;;;;16.27;5.13;;;1.80;99.90;;;;;;5072490;28;20020;-79
2021/12/10 00:23:13;;;;;;;14.85;5.18;;;1.80;99.90;;;;;;5071266;28;20024;-79
2021/12/10 00:25:41;;;;;;;;;;;1.80;99.90;;;;;;5073023;28;20372;-79
2021/12/10 00:28:19;;;;;;;15.32;5.85;;;1.90;99.90;;;;;;5071230;28;20279;-79
2021/12/10 00:31:16;;;;;;;12.90;5.78;;;1.90;99.90;;;;;;5072606;28;20031;-79
2021/12/10 00:33:55;;;;;;;13.43;5.45;;;2.00;99.90;;;;;;5055297;28;20019;-79
2021/12/10 00:36:21;;;;;;;12.43;5.22;;;2.00;99.90;;;;;;5072545;28;20043;-79
2021/12/10 00:38:50;;;;;;;8.73;5.30;;;2.00;99.90;;;;;;5072487;28;20021;-79
2021/12/10 00:41:17;;;;;;;18.40;5.20;;;2.00;99.90;;;;;;5071135;28;20047;-79
2021/12/10 00:43:43;;;;;;;16.80;4.57;;;2.00;99.90;;;;;;5071038;28;20024;-79
2021/12/10 00:46:08;;;;;;;6.45;4.43;;;2.10;99.90;;;;;;5072374;28;20077;-79
2021/12/10 00:48:34;;;;;;;16.02;5.25;;;2.10;99.90;;;;;;5071885;28;20469;-79
2021/12/10 00:51:06;;;;;;;10.73;5.43;;;2.10;99.90;;;;;;5072059;28;20040;-79
2021/12/10 00:53:33;;;;;;;9.38;4.95;;;2.10;99.90;;;;;;5072382;28;20101;-79
2021/12/10 00:55:59;;;;;;;6.35;4.35;;;2.10;99.90;;;;;;5072316;28;20420;-79
2021/12/10 00:58:26;;;;;;;19.48;5.32;;;2.10;99.90;;;;;;5071809;28;20037;-79
2021/12/10 01:01:05;;;;;;;13.25;5.07;;;2.10;99.90;;;;;;5072308;28;20023;-79
2021/12/10 01:03:47;;;;;;;9.35;4.97;;;2.10;99.90;;;;;;5072030;28;20025;-79
2021/12/10 01:06:16;;;;;;;20.10;5.97;;;2.10;99.90;;;;;;5072129;28;20477;-79
2021/12/10 01:08:46;;;;;;;16.92;5.60;;;2.10;99.90;;;;;;5072248;28;20354;-79
2021/12/10 01:11:26;;;;;;;9.77;4.55;;;2.20;99.90;;;;;;5072204;28;20086;-79
2021/12/10 01:13:57;;;;;;;19.50;6.10;;;2.20;99.90;;;;;;5076089;28;20028;-79
2021/12/10 01:24:38;;;;;;;12.13;6.63;;;2.20;99.90;;;;;;5076019;28;20036;-79
2021/12/10 01:27:25;;;;;;;10.07;4.70;;;2.20;99.90;;;;;;5075689;28;20066;-79
2021/12/10 01:29:56;;;;;;;8.13;5.00;;;2.20;99.90;;;;;;5075440;28;20496;-78
2021/12/10 01:32:26;;;;;;;12.38;5.70;;;2.20;99.90;;;;;;5075353;28;20066;-79
2021/12/10 01:34:52;;;;;;;14.98;5.05;;;2.20;99.90;;;;;;5073899;28;20028;-79
2021/12/10 01:37:18;;;;;;;13.18;5.35;;;2.20;99.90;;;;;;5074099;28;20357;-78
2021/12/10 01:39:45;;;;;;;16.38;5.60;;;2.20;99.90;;;;;;5075343;28;20031;-79
2021/12/10 01:44:54;;;;;;;17.90;6.93;;;2.20;99.90;;;;;;5075404;28;20538;-79
2021/12/10 01:47:24;;;;;;;9.77;4.80;;;2.20;99.90;;;;;;5073807;28;20376;-79
2021/12/10 01:49:50;;;;;;;9.50;5.70;;;2.20;99.90;;;;;;5074690;28;20028;-79
2021/12/10 01:52:18;;;;;;;10.68;4.82;;;2.20;99.90;;;;;;5074795;28;20078;-79
2021/12/10 01:54:55;;;;;;;10.10;4.68;;;2.20;99.90;;;;;;5075089;28;20035;-79
2021/12/10 01:57:23;;;;;;;8.48;4.70;;;2.10;99.90;;;;;;5074347;28;20495;-79
2021/12/10 01:59:49;;;;;;;15.23;5.15;;;2.10;99.90;;;;;;5075028;28;20561;-79
2021/12/10 02:02:21;;;;;;;12.60;5.78;;;2.10;99.90;;;;;;5074840;28;20032;-79
2021/12/10 02:04:47;;;;;;;13.52;5.72;;;2.00;99.90;;;;;;5074833;28;20055;-79
2021/12/10 02:07:19;;;;;;;8.68;4.75;;;2.10;99.90;;;;;;5075019;28;20096;-79
2021/12/10 02:09:45;;;;;;;16.27;5.22;;;2.00;99.90;;;;;;5074910;28;20440;-79
2021/12/10 02:12:11;;;;;;;11.30;5.53;;;1.90;99.90;;;;;;5074254;28;20032;-79
2021/12/10 02:14:37;;;;;;;8.20;5.22;;;1.90;99.90;;;;;;5074741;28;20046;-79
2021/12/10 02:17:05;;;;;;;11.20;5.63;;;1.90;99.90;;;;;;5074541;28;20091;-79
2021/12/10 02:19:31;;;;;;;9.15;5.70;;;1.80;99.90;;;;;;5074418;28;20033;-79
2021/12/10 02:21:58;;;;;;;17.08;5.55;;;1.90;99.90;;;;;;5074307;28;20457;-79
2021/12/10 02:24:24;;;;;;;10.43;5.28;;;1.90;99.90;;;;;;5074157;28;20112;-79
2021/12/10 02:26:57;;;;;;;7.30;5.03;;;1.80;99.90;;;;;;5074622;28;20516;-79
2021/12/10 02:29:25;;;;;;;8.25;5.70;;;1.90;99.90;;;;;;5074349;28;20503;-79
2021/12/10 02:31:53;;;;;;;13.65;5.60;;;1.90;99.90;;;;;;5074002;28;20039;-79
2021/12/10 02:34:20;;;;;;;9.57;5.18;;;1.90;99.90;;;;;;5074148;28;20032;-79
2021/12/10 02:36:46;;;;;;;12.05;5.78;;;1.90;99.90;;;;;;5074244;28;20044;-79
2021/12/10 02:39:16;;;;;;;11.73;5.90;;;2.00;99.90;;;;;;5074243;28;20033;-79
2021/12/10 02:41:42;;;;;;;11.23;6.13;;;2.00;99.90;;;;;;5072782;28;20032;-79
2021/12/10 02:44:11;;;;;;;9.82;6.22;;;2.00;99.90;;;;;;5073058;28;20055;-79
2021/12/10 02:46:38;;;;;;;11.93;6.60;;;2.00;99.90;;;;;;5074046;28;20481;-79
2021/12/10 02:49:06;;;;;;;14.43;7.88;;;2.00;99.90;;;;;;5073735;28;20032;-79
2021/12/10 02:51:32;;;;;;;11.35;5.63;;;2.00;99.90;;;;;;5073763;28;20024;-79
2021/12/10 02:53:59;;;;;;;10.15;5.60;;;2.00;99.90;;;;;;5073813;28;20021;-79
2021/12/10 02:56:25;;;;;;;9.25;5.30;;;2.00;99.90;;;;;;5072576;28;20048;-79
2021/12/10 02:58:54;;;;;;;11.98;5.88;;;2.10;99.90;;;;;;5073738;28;20029;-79
2021/12/10 03:01:29;;;;;;;9.90;6.35;;;2.10;99.90;;;;;;5073788;28;20383;-79
2021/12/10 03:03:54;;;;;;;13.40;6.28;;;2.10;99.90;;;;;;5073510;28;20085;-79
2021/12/10 03:06:24;;;;;;;14.32;7.60;;;2.10;99.90;;;;;;5073417;28;20028;-79
2021/12/10 03:08:54;;;;;;;11.82;6.82;;;2.10;99.90;;;;;;5073243;28;20082;-79
2021/12/10 03:11:24;;;;;;;14.35;6.28;;;2.10;99.90;;;;;;5072534;28;20024;-79
2021/12/10 03:13:51;;;;;;;10.93;6.97;;;2.20;99.90;;;;;;5072115;28;20039;-79
2021/12/10 03:16:18;;;;;;;10.10;6.38;;;2.20;99.90;;;;;;5073577;28;20099;-79
2021/12/10 03:18:45;;;;;;;11.40;7.30;;;2.10;99.90;;;;;;5073092;28;20029;-79
2021/12/10 03:21:11;;;;;;;11.27;6.30;;;2.10;99.90;;;;;;5073260;28;20024;-79
2021/12/10 03:23:43;;;;;;;13.05;6.90;;;2.20;99.90;;;;;;5073271;28;20024;-79
2021/12/10 03:26:10;;;;;;;9.38;5.68;;;2.20;99.90;;;;;;5072016;28;20020;-79
2021/12/10 03:28:37;;;;;;;11.05;7.30;;;2.20;99.90;;;;;;5073141;28;20058;-79
2021/12/10 03:31:03;;;;;;;16.00;6.60;;;2.20;99.90;;;;;;5073242;28;20394;-79
2021/12/10 03:33:29;;;;;;;11.68;6.15;;;2.20;99.90;;;;;;5072413;28;20032;-79
2021/12/10 03:35:55;;;;;;;8.13;5.97;;;2.20;99.90;;;;;;5054482;28;20025;-79
2021/12/10 03:38:28;;;;;;;10.90;6.18;;;2.30;99.90;;;;;;5073086;28;20025;-79
2021/12/10 03:40:54;;;;;;;14.75;7.22;;;2.30;99.90;;;;;;5052119;28;20086;-79
2021/12/10 03:43:21;;;;;;;11.40;6.47;;;2.30;99.90;;;;;;5053043;28;20043;-78
2021/12/10 03:45:51;;;;;;;12.45;6.85;;;2.30;99.90;;;;;;5058568;28;20032;-79
2021/12/10 03:48:24;;;;;;;15.77;6.15;;;2.40;99.90;;;;;;5072729;28;20055;-79
2021/12/10 03:50:50;;;;;;;11.05;6.50;;;2.40;99.90;;;;;;5072943;28;20024;-79
2021/12/10 03:53:18;;;;;;;12.80;6.00;;;2.40;99.90;;;;;;5072329;28;20031;-79
2021/12/10 03:55:46;;;;;;;10.55;6.78;;;2.50;99.90;;;;;;5053017;28;20086;-79
2021/12/10 03:58:12;;;;;;;12.60;6.75;;;2.50;99.90;;;;;;5071068;28;20119;-79
2021/12/10 04:00:44;;;;;;;13.25;6.53;;;2.40;99.90;;;;;;5072123;28;20125;-79
2021/12/10 04:03:10;;;;;;;10.00;6.43;;;2.50;99.90;;;;;;5071311;28;20028;-78
2021/12/10 04:05:35;;;;;;;13.07;6.65;;;2.50;99.90;;;;;;5071378;28;20031;-79
2021/12/10 04:08:01;;;;;;;13.27;7.03;;;2.50;99.90;;;;;;5073055;28;20103;-79
2021/12/10 04:10:28;;;;;;;15.75;8.20;;;2.50;99.90;;;;;;5072659;28;20040;-78
2021/12/10 04:12:55;;;;;;;16.08;8.20;;;2.50;99.90;;;;;;5072707;28;20037;-79
2021/12/10 04:15:23;;;;;;;13.63;8.50;;;2.50;99.90;;;;;;5072442;28;20025;-79
2021/12/10 04:17:52;;;;;;;17.77;8.27;;;2.50;99.90;;;;;;5072371;28;20415;-79
2021/12/10 04:20:20;;;;;;;16.25;9.27;;;2.50;99.90;;;;;;5071261;28;20021;-79
2021/12/10 04:22:46;;;;;;;15.65;9.65;;;2.50;99.90;;;;;;5071231;28;20051;-79
2021/12/10 04:25:16;;;;;;;16.48;9.40;;;2.50;99.90;;;;;;5072835;28;20054;-79
2021/12/10 04:27:43;;;;;;;18.20;9.43;;;2.50;99.90;;;;;;5072697;28;20029;-79
2021/12/10 04:30:12;;;;;;;13.57;8.60;;;2.50;99.90;;;;;;5072685;28;20366;-79
2021/12/10 04:32:38;;;;;;;18.88;9.90;;;2.50;99.90;;;;;;5071724;28;20411;-79
2021/12/10 04:35:04;;;;;;;20.08;10.07;;;2.50;99.90;;;;;;5071182;28;20052;-79
2021/12/10 04:37:29;;;;;;;22.02;10.57;;;2.60;99.90;;;;;;5072342;28;20024;-78
2021/12/10 04:39:55;;;;;;;17.42;10.68;;;2.60;99.90;;;;;;5072687;28;20043;-79
2021/12/10 04:42:24;;;;;;;13.75;8.65;;;2.60;99.90;;;;;;5072311;28;20068;-79
2021/12/10 04:44:56;;;;;;;15.57;9.75;;;2.60;99.90;;;;;;5072280;28;20346;-79
2021/12/10 04:47:22;;;;;;;25.83;10.32;;;2.60;99.90;;;;;;5074880;28;20024;-79
2021/12/10 04:49:51;;;;;;;17.55;8.75;;;2.50;99.90;;;;;;5076021;28;20025;-79
2021/12/10 04:52:17;;;;;;;16.67;9.13;;;2.60;99.90;;;;;;5076161;28;20056;-79
2021/12/10 04:54:44;;;;;;;12.18;8.43;;;2.50;99.90;;;;;;5075838;28;20078;-79
2021/12/10 04:57:11;;;;;;;20.02;10.43;;;2.50;99.90;;;;;;5076054;28;20047;-79
2021/12/10 04:59:38;;;;;;;14.65;9.15;;;2.50;99.90;;;;;;5076071;28;20028;-79
2021/12/10 05:02:08;;;;;;;13.73;8.93;;;2.50;99.90;;;;;;5075966;28;20526;-78
2021/12/10 05:04:35;;;;;;;16.52;9.00;;;2.50;99.90;;;;;;5075668;28;20463;-78
2021/12/10 05:07:02;;;;;;;19.88;10.65;;;2.50;99.90;;;;;;5076015;28;20024;-79
2021/12/10 05:09:28;;;;;;;21.38;10.10;;;2.50;99.90;;;;;;5076060;28;20027;-79
2021/12/10 05:11:56;;;;;;;12.88;8.00;;;2.50;99.90;;;;;;5075385;28;20024;-79
2021/12/10 05:14:22;;;;;;;13.70;8.00;;;2.50;99.90;;;;;;5092809;28;20058;-79
2021/12/10 05:16:51;;;;;;;13.45;8.30;;;2.50;99.90;;;;;;5093029;28;20078;-79
2021/12/10 05:19:21;;;;;;;13.48;8.57;;;2.50;99.90;;;;;;5075205;28;20116;-79
2021/12/10 05:21:48;;;;;;;16.38;9.32;;;2.50;99.90;;;;;;5075487;28;20024;-79
2021/12/10 05:24:15;;;;;;;19.60;8.98;;;2.50;99.90;;;;;;5075647;28;20067;-79
2021/12/10 05:26:41;;;;;;;21.15;10.90;;;2.50;99.90;;;;;;5075511;28;20031;-79
2021/12/10 05:29:08;;;;;;;15.95;8.98;;;2.50;99.90;;;;;;5075552;28;20027;-79
2021/12/10 05:31:36;;;;;;;19.83;9.05;;;2.50;99.90;;;;;;5075560;28;20877;-79
2021/12/10 05:34:02;;;;;;;20.60;9.65;;;2.50;99.90;;;;;;5075288;28;20079;-79
2021/12/10 05:36:30;;;;;;;15.18;9.50;;;2.50;99.90;;;;;;5075408;28;20039;-79
2021/12/10 05:38:56;;;;;;;24.95;10.55;;;2.50;99.90;;;;;;5073780;28;20429;-79
2021/12/10 05:41:21;;;;;;;23.95;11.63;;;2.50;99.90;;;;;;5084461;28;20028;-79
2021/12/10 05:43:47;;;;;;;21.90;11.15;;;2.50;99.90;;;;;;5095654;28;20027;-79
2021/12/10 05:46:15;;;;;;;22.00;11.55;;;2.50;99.90;;;;;;5079002;28;20025;-79
2021/12/10 05:48:41;;;;;;;19.83;12.40;;;2.50;99.90;;;;;;5073567;28;20029;-79
2021/12/10 05:51:07;;;;;;;24.92;11.80;;;2.50;99.90;;;;;;5075259;28;20387;-79
2021/12/10 05:53:36;;;;;;;17.98;11.13;;;2.50;99.90;;;;;;5075157;28;20017;-79
2021/12/10 05:56:02;;;;;;;18.65;10.77;;;2.50;99.90;;;;;;5073580;28;20452;-79
2021/12/10 05:58:29;;;;;;;22.27;10.40;;;2.50;99.90;;;;;;5080714;28;20028;-78
2021/12/10 06:01:03;;;;;;;20.25;10.57;;;2.50;99.90;;;;;;5058995;28;20342;-79
2021/12/10 06:03:30;;;;;;;16.55;10.80;;;2.50;99.90;;;;;;5053268;28;20025;-79
2021/12/10 06:05:57;;;;;;;18.13;10.18;;;2.50;99.90;;;;;;5053586;28;20021;-79
2021/12/10 06:08:23;;;;;;;15.73;9.77;;;2.50;99.90;;;;;;5054984;28;20028;-79
2021/12/10 06:10:52;;;;;;;17.08;10.35;;;2.50;99.90;;;;;;5053538;28;20035;-79
2021/12/10 06:13:17;;;;;;;19.70;10.25;;;2.50;99.90;;;;;;5053616;28;20428;-78
2021/12/10 06:15:44;;;;;;;20.13;10.73;;;2.50;99.90;;;;;;5058818;28;20028;-78
2021/12/10 06:18:10;;;;;;;17.85;10.63;;;2.50;99.90;;;;;;5073740;28;20493;-79
2021/12/10 06:20:40;;;;;;;25.70;10.88;;;2.50;99.90;;;;;;5075828;28;20028;-79
2021/12/10 06:23:06;;;;;;;14.90;9.88;;;2.50;99.90;;;;;;5078478;28;20021;-79
2021/12/10 06:25:33;;;;;;;26.63;12.57;;;2.50;99.90;;;;;;5074607;28;20025;-79
2021/12/10 06:27:59;;;;;;;20.42;10.63;;;2.50;99.90;;;;;;5074399;28;20032;-78
2021/12/10 06:30:31;;;;;;;19.05;11.23;;;2.50;99.90;;;;;;5073451;28;20025;-79
2021/12/10 06:32:59;;;;;;;17.00;10.07;;;2.50;99.90;;;;;;5073725;28;21087;-79
2021/12/10 06:35:28;;;;;;;14.65;9.27;;;2.50;99.90;;;;;;5073575;28;20495;-79
2021/12/10 06:37:54;;;;;;;14.95;8.65;;;2.50;99.90;;;;;;5075128;28;20032;-78
2021/12/10 06:40:24;;;;;;;15.50;8.88;;;2.50;99.90;;;;;;5074591;28;20035;-79
2021/12/10 06:42:50;;;;;;;15.80;9.07;;;2.40;99.90;;;;;;5072592;28;20035;-79
2021/12/10 06:45:19;;;;;;;17.92;8.02;;;2.40;99.90;;;;;;5086962;28;20385;-79
2021/12/10 06:47:48;;;;;;;19.73;8.98;;;2.40;99.90;;;;;;5082199;28;20479;-79
2021/12/10 06:50:16;;;;;;;19.40;9.02;;;2.40;99.90;;;;;;5079820;28;20056;-78
2021/12/10 06:52:42;;;;;;;15.95;9.35;;;2.40;99.90;;;;;;5075565;28;20024;-78
2021/12/10 06:55:08;;;;;;;13.98;8.75;;;2.40;99.90;;;;;;5074314;28;20092;-79
2021/12/10 06:57:35;;;;;;;12.98;8.02;;;2.40;99.90;;;;;;5073333;28;20047;-79
2021/12/10 07:00:10;;;;;;;16.20;9.70;;;2.40;99.90;;;;;;5072076;28;20020;-79
2021/12/10 07:02:36;;;;;;;15.20;9.03;;;2.40;99.90;;;;;;5052141;28;20576;-79
2021/12/10 07:05:04;;;;;;;14.10;8.27;;;2.40;99.90;;;;;;5084461;28;20342;-78
2021/12/10 07:07:32;;;;;;;15.77;8.95;;;2.40;99.90;;;;;;5085621;28;20039;-79
2021/12/10 07:10:01;;;;;;;16.88;8.40;;;2.40;99.90;;;;;;5073487;28;20461;-79
2021/12/10 07:12:27;;;;;;;12.15;7.47;;;2.40;99.90;;;;;;5067652;28;20394;-79
2021/12/10 07:14:56;;;;;;;19.92;9.07;;;2.30;99.90;;;;;;5071404;28;20020;-79
2021/12/10 07:17:22;;;;;;;18.23;10.05;;;2.30;99.90;;;;;;5071165;28;20012;-78
2021/12/10 07:19:49;;;;;;;21.13;10.27;;;2.30;99.90;;;;;;5073221;28;20032;-78
2021/12/10 07:22:14;;;;;;;18.08;9.77;;;2.20;99.90;;;;;;5072212;28;20027;-78
2021/12/10 07:24:40;;;;;;;22.08;11.27;;;2.20;99.90;;;;;;5074542;28;20469;-79
2021/12/10 07:27:11;;;;;;;25.27;10.95;;;2.20;99.90;;;;;;5085394;28;20073;-78
2021/12/10 07:29:38;;;;;;;17.95;10.18;;;2.20;99.90;;;;;;5072879;28;20028;-79
2021/12/10 07:32:04;;;;;;;20.90;9.80;;;2.10;99.90;;;;;;5072923;28;20102;-79
2021/12/10 07:34:30;;;;;;;20.83;9.73;;;2.10;99.90;;;;;;5072967;28;20039;-78
2021/12/10 07:36:55;;;;;;;14.07;8.90;;;2.00;99.90;;;;;;5072903;28;20115;-78
2021/12/10 07:39:21;;;;;;;19.83;9.15;;;1.90;99.90;;;;;;5072992;28;20024;-78
2021/12/10 07:41:47;;;;;;;19.25;7.97;;;1.80;99.90;;;;;;5072804;28;20085;-78
2021/12/10 07:44:13;;;;;;;26.30;10.05;;;1.70;99.90;;;;;;5072845;28;20092;-78
2021/12/10 07:46:40;;;;;;;17.38;10.07;;;1.70;99.90;;;;;;5072801;28;20031;-78
2021/12/10 07:49:13;;;;;;;25.88;12.40;;;1.60;99.90;;;;;;5074302;28;20020;-79
2021/12/10 07:51:39;;;;;;;25.15;12.88;;;1.60;99.90;;;;;;5092861;28;20031;-79
2021/12/10 07:54:06;;;;;;;20.58;12.93;;;1.70;99.90;;;;;;5083967;28;20572;-78
2021/12/10 07:56:32;;;;;;;23.92;12.55;;;1.70;99.90;;;;;;5080990;28;20056;-78
2021/12/10 07:58:59;;;;;;;24.73;13.45;;;1.80;99.90;;;;;;5073274;28;20052;-78
2021/12/10 08:01:28;;;;;;;27.88;12.45;;;1.80;99.90;;;;;;5073246;28;20024;-79
2021/12/10 08:03:57;;;;;;;19.80;10.50;;;1.90;99.90;;;;;;5072607;28;20020;-79
2021/12/10 08:06:23;;;;;;;18.40;12.90;;;1.90;99.90;;;;;;5084022;28;20387;-78
2021/12/10 08:08:50;;;;;;;28.73;13.35;;;2.00;99.90;;;;;;5072650;28;20059;-78
2021/12/10 08:11:19;;;;;;;16.90;11.02;;;2.00;99.90;;;;;;5073235;28;20029;-78
2021/12/10 08:13:45;;;;;;;16.30;10.40;;;2.00;99.90;;;;;;5087359;28;20024;-79
2021/12/10 08:16:11;;;;;;;19.77;11.52;;;2.00;99.90;;;;;;5084447;28;20042;-79
2021/12/10 08:18:36;;;;;;;17.55;10.68;;;2.10;99.90;;;;;;5086009;28;20051;-79
2021/12/10 08:21:03;;;;;;;19.52;10.82;;;2.10;99.90;;;;;;5080375;28;20029;-79
2021/12/10 08:23:29;;;;;;;19.20;11.55;;;2.10;99.90;;;;;;5071711;28;20019;-79
2021/12/10 08:25:55;;;;;;;20.98;12.00;;;2.10;99.90;;;;;;5066685;28;20021;-78
2021/12/10 08:28:23;;;;;;;18.90;12.02;;;2.20;99.90;;;;;;5071841;28;20025;-79
2021/12/10 08:30:50;;;;;;;21.75;12.75;;;2.10;99.90;;;;;;5066276;28;20020;-79
2021/12/10 08:33:16;;;;;;;24.05;12.55;;;2.20;99.90;;;;;;5070509;28;20476;-79
2021/12/10 08:35:45;;;;;;;24.73;12.30;;;2.20;99.90;;;;;;5066088;28;20127;-78
2021/12/10 08:38:11;;;;;;;21.80;13.05;;;2.20;99.90;;;;;;5060008;28;20074;-78
2021/12/10 08:40:45;;;;;;;24.02;12.45;;;2.20;99.90;;;;;;5063355;28;20528;-78
2021/12/10 08:43:11;;;;;;;24.13;14.88;;;2.20;99.90;;;;;;5072101;28;20021;-79
2021/12/10 08:45:39;;;;;;;24.88;14.10;;;2.20;99.90;;;;;;5069729;28;21311;-79
2021/12/10 08:48:05;;;;;;;25.05;14.38;;;2.20;99.90;;;;;;5070542;28;20396;-79
2021/12/10 08:50:36;;;;;;;21.92;13.77;;;2.30;99.90;;;;;;5060310;28;20052;-78
2021/12/10 08:53:09;;;;;;;29.38;16.13;;;2.30;99.90;;;;;;5066512;28;20020;-78
2021/12/10 08:55:36;;;;;;;25.92;15.60;;;2.30;99.90;;;;;;5072125;28;20526;-79
2021/12/10 08:58:04;;;;;;;23.55;15.05;;;2.40;99.90;;;;;;5072148;28;20029;-79
2021/12/10 09:00:31;;;;;;;26.42;14.13;;;2.40;99.90;;;;;;5072134;28;20021;-79
2021/12/10 09:02:58;;;;;;;22.38;12.55;;;2.40;99.90;;;;;;5068613;28;20020;-78
2021/12/10 09:05:25;;;;;;;25.60;12.57;;;2.40;99.90;;;;;;5072037;28;20074;-78
2021/12/10 09:07:51;;;;;;;24.58;14.30;;;2.40;99.90;;;;;;5072237;28;20032;-79
2021/12/10 09:10:22;;;;;;;23.17;13.40;;;2.40;99.90;;;;;;5072085;28;20055;-79
2021/12/10 09:12:48;;;;;;;17.83;11.50;;;2.50;99.90;;;;;;5071685;28;20510;-79
2021/12/10 09:15:18;;;;;;;18.40;11.23;;;2.50;99.90;;;;;;5075338;28;20380;-79
2021/12/10 09:17:46;;;;;;;29.65;15.02;;;2.60;99.90;;;;;;5084905;28;20036;-78
2021/12/10 09:20:21;;;;;;;22.67;12.77;;;2.60;99.90;;;;;;5090459;28;20480;-78
2021/12/10 09:22:47;;;;;;;22.90;12.25;;;2.70;99.90;;;;;;5081438;28;20111;-78
2021/12/10 09:25:14;;;;;;;22.60;12.70;;;2.70;99.90;;;;;;5082086;28;20091;-79
2021/12/10 09:27:40;;;;;;;24.42;14.85;;;2.70;99.90;;;;;;5085886;28;20388;-79
2021/12/10 09:30:08;;;;;;;24.77;14.88;;;2.70;99.90;;;;;;5071812;28;20032;-78
2021/12/10 09:32:34;;;;;;;22.85;12.90;;;2.80;99.90;;;;;;5057967;28;20472;-78
2021/12/10 09:35:05;;;;;;;18.70;11.60;;;2.80;99.90;;;;;;5054894;28;20078;-78
2021/12/10 09:37:32;;;;;;;22.33;12.73;;;2.80;99.90;;;;;;5055477;28;20417;-78
2021/12/10 09:39:58;;;;;;;24.65;14.55;;;2.80;99.90;;;;;;5055338;28;20029;-79
2021/12/10 09:42:25;;;;;;;29.05;16.17;;;2.80;99.90;;;;;;5054009;28;20163;-79
2021/12/10 09:44:54;;;;;;;26.60;13.68;;;2.90;99.90;;;;;;5068107;28;20149;-78
2021/12/10 09:47:20;;;;;;;20.70;13.45;;;2.90;99.90;;;;;;5086780;28;20489;-78
2021/12/10 09:49:51;;;;;;;25.25;14.13;;;2.90;99.90;;;;;;5075210;28;20366;-79
2021/12/10 09:52:20;;;;;;;22.52;14.23;;;2.90;99.90;;;;;;5073694;28;20111;-79
2021/12/10 09:54:47;;;;;;;23.35;14.75;;;2.90;99.90;;;;;;5093354;28;20024;-79
2021/12/10 09:57:24;;;;;;;23.40;13.93;;;3.00;99.90;;;;;;5094101;28;20048;-79
2021/12/10 09:59:51;;;;;;;30.10;15.00;;;3.00;99.90;;;;;;5094270;28;20421;-78
2021/12/10 10:02:18;;;;;;;18.80;12.90;;;3.00;99.90;;;;;;5079313;28;20026;-79
2021/12/10 10:04:49;;;;;;;18.63;10.93;;;3.00;99.90;;;;;;5082905;28;20043;-79
2021/12/10 10:07:25;;;;;;;19.42;12.70;;;3.10;99.90;;;;;;5072967;28;20028;-79
2021/12/10 10:10:02;;;;;;;19.35;11.38;;;3.10;99.90;;;;;;5074091;28;20031;-79
2021/12/10 10:12:32;;;;;;;16.50;11.35;;;3.10;99.90;;;;;;5079991;28;20020;-79
2021/12/10 10:15:03;;;;;;;19.48;12.43;;;3.20;99.90;;;;;;5083089;28;20039;-79
2021/12/10 10:17:28;;;;;;;19.67;10.95;;;3.20;99.90;;;;;;5073852;28;20020;-78
2021/12/10 10:19:57;;;;;;;16.58;10.35;;;3.20;99.90;;;;;;5082886;28;20038;-78
2021/12/10 10:22:27;;;;;;;16.27;9.75;;;3.20;99.90;;;;;;5054384;28;20064;-79
2021/12/10 10:24:55;;;;;;;17.65;10.48;;;3.20;99.90;;;;;;5064045;28;20113;-79
2021/12/10 10:27:27;;;;;;;16.15;9.38;;;3.20;99.90;;;;;;5074662;28;20021;-79
2021/12/10 10:30:02;;;;;;;14.57;8.98;;;3.30;99.90;;;;;;5080437;28;20030;-79
2021/12/10 10:32:30;;;;;;;11.45;5.25;;;3.30;99.90;;;;;;5084989;28;20399;-79
2021/12/10 10:35:01;;;;;;;7.07;4.97;;;3.40;99.90;;;;;;5090007;28;20063;-79
2021/12/10 10:37:29;;;;;;;6.53;4.78;;;3.40;99.90;;;;;;5057936;28;20046;-79
2021/12/10 10:39:55;;;;;;;9.02;5.18;;;3.30;99.90;;;;;;5072746;28;20017;-79
2021/12/10 10:42:27;;;;;;;8.20;5.18;;;3.40;99.90;;;;;;5073413;28;20024;-79
2021/12/10 10:45:02;;;;;;;8.38;4.30;;;3.40;99.90;;;;;;5088643;28;20360;-79
2021/12/10 10:47:28;;;;;;;7.25;4.28;;;3.40;99.90;;;;;;5086695;28;20024;-79
2021/12/10 10:50:12;;;;;;;8.63;4.55;;;3.40;99.90;;;;;;5089252;28;20043;-79
2021/12/10 10:52:43;;;;;;;8.20;4.30;;;3.40;99.90;;;;;;5073539;28;20358;-79
2021/12/10 10:55:14;;;;;;;7.28;4.38;;;3.50;99.90;;;;;;5077941;28;20027;-79
2021/12/10 10:57:54;;;;;;;4.68;3.60;;;3.40;99.90;;;;;;5070929;28;20091;-79
2021/12/10 11:00:29;;;;;;;5.55;3.38;;;3.50;99.90;;;;;;5073288;28;20342;-79
2021/12/10 11:03:10;;;;;;;5.45;3.40;;;3.50;99.90;;;;;;5080295;28;20020;-79
2021/12/10 11:05:49;;;;;;;5.05;3.45;;;3.50;99.90;;;;;;5078853;28;20025;-79
2021/12/10 11:08:37;;;;;;;6.38;4.00;;;3.50;99.90;;;;;;5056900;28;20040;-79
2021/12/10 11:11:29;;;;;;;5.45;2.75;;;3.50;99.90;;;;;;5085558;28;20032;-79
2021/12/10 11:14:37;;;;;;;3.53;2.50;;;3.60;99.90;;;;;;5083560;28;20051;-79
2021/12/10 11:17:26;;;;;;;3.60;2.75;;;3.60;99.90;;;;;;5043328;28;20388;-79
2021/12/10 11:20:03;;;;;;;3.60;2.50;;;3.60;99.90;;;;;;5048145;28;20042;-79
2021/12/10 11:22:31;;;;;;;5.43;3.05;;;3.60;99.90;;;;;;5061167;28;20439;-79
2021/12/10 11:25:05;;;;;;;3.33;2.88;;;3.60;99.90;;;;;;5084345;28;20116;-79
2021/12/10 11:27:37;;;;;;;3.42;2.65;;;3.60;99.90;;;;;;5059854;28;20043;-79
2021/12/10 11:30:07;;;;;;;3.35;2.83;;;3.70;99.90;;;;;;5072402;28;20112;-79
2021/12/10 11:32:55;;;;;;;3.05;2.35;;;3.60;99.90;;;;;;5072357;28;20067;-79
2021/12/10 11:35:28;;;;;;;2.35;2.10;;;3.60;99.90;;;;;;5075325;28;20472;-79
2021/12/10 11:37:57;;;;;;;3.95;2.63;;;3.70;99.90;;;;;;5087736;28;20101;-78
2021/12/10 11:41:00;;;;;;;3.08;2.63;;;3.70;99.90;;;;;;5073482;28;20029;-79
2021/12/10 11:49:06;;;;;;;5.65;3.63;;;3.80;99.90;;;;;;5089195;28;20044;-79
2021/12/10 11:51:48;;;;;;;6.53;3.70;;;3.80;99.90;;;;;;5085701;28;20033;-79
2021/12/10 11:54:37;;;;;;;4.72;3.13;;;3.80;99.90;;;;;;5055218;28;20142;-78
2021/12/10 11:57:15;;;;;;;5.38;3.53;;;3.80;99.90;;;;;;5078704;28;20040;-79
2021/12/10 11:59:46;;;;;;;3.70;2.92;;;3.80;99.90;;;;;;5085699;28;20062;-79
2021/12/10 12:02:20;;;;;;;4.45;3.35;;;3.90;99.90;;;;;;5092748;28;20030;-78
2021/12/10 12:04:50;;;;;;;5.18;3.10;;;3.90;99.90;;;;;;5077904;28;20020;-79
2021/12/10 12:07:41;;;;;;;4.35;3.22;;;3.90;99.90;;;;;;5075705;28;20480;-79
2021/12/10 12:10:32;;;;;;;4.38;3.15;;;3.90;99.90;;;;;;5081962;28;20162;-79
2021/12/10 12:13:35;;;;;;;6.35;3.13;;;3.90;99.90;;;;;;5056293;28;20056;-79
2021/12/10 12:16:00;;;;;;;3.80;2.97;;;3.90;99.90;;;;;;5080718;28;20186;-79
2021/12/10 12:18:38;;;;;;;4.38;2.90;;;3.90;99.90;;;;;;5073063;28;20029;-78
2021/12/10 12:27:05;;;;;;;4.13;3.10;;;3.90;99.90;;;;;;5065659;28;20399;-79
2021/12/10 12:29:45;;;;;;;5.88;3.35;;;3.80;99.90;;;;;;5080569;28;20210;-78
2021/12/10 12:32:16;;;;;;;5.85;3.47;;;3.80;99.90;;;;;;5092206;28;20036;-79
2021/12/10 12:34:42;;;;;;;3.13;2.80;;;3.80;99.90;;;;;;5092537;28;20024;-79
2021/12/10 12:37:10;;;;;;;5.82;3.33;;;3.80;99.90;;;;;;5092538;28;20029;-78
2021/12/10 12:39:48;;;;;;;3.72;3.05;;;3.70;99.90;;;;;;5092577;28;20024;-79
2021/12/10 12:42:19;;;;;;;3.60;2.95;;;3.70;99.90;;;;;;5091796;28;20020;-79
2021/12/10 12:44:46;;;;;;;3.80;2.80;;;3.70;99.90;;;;;;5092418;28;20024;-78
2021/12/10 12:47:21;;;;;;;3.42;2.63;;;3.70;99.90;;;;;;5092351;28;20036;-79
2021/12/10 12:49:47;;;;;;;8.18;3.42;;;3.70;99.90;;;;;;5091454;28;20156;-78
2021/12/10 12:52:43;;;;;;;5.43;3.47;;;3.70;99.90;;;;;;5092403;28;20029;-79
2021/12/10 12:55:27;;;;;;;6.70;3.00;;;3.80;99.90;;;;;;5084433;28;20036;-79
2021/12/10 12:58:07;;;;;;;8.85;3.40;;;3.70;99.90;;;;;;5092129;28;20093;-78
2021/12/10 13:00:46;;;;;;;4.10;3.22;;;3.70;99.90;;;;;;5092515;28;20495;-78
2021/12/10 13:03:17;;;;;;;5.53;3.65;;;3.70;99.90;;;;;;5092106;28;20082;-80
2021/12/10 13:05:50;;;;;;;4.43;3.45;;;3.70;99.90;;;;;;5092385;28;20487;-79
2021/12/10 13:08:19;;;;;;;6.05;3.58;;;3.70;99.90;;;;;;5094942;28;20062;-79
2021/12/10 13:11:16;;;;;;;3.10;2.80;;;3.70;99.90;;;;;;5096327;28;20439;-79
2021/12/10 13:13:47;;;;;;;;;;;3.60;99.90;;;;;;5095110;28;20032;-79
2021/12/10 13:16:38;;;;;;;6.28;3.65;;;3.70;99.90;;;;;;5096013;28;19965;-80
2021/12/10 13:19:07;;;;;;;6.72;3.72;;;3.70;99.90;;;;;;5096009;28;20024;-79
2021/12/10 13:21:35;;;;;;;6.03;3.63;;;3.70;99.90;;;;;;5095865;28;20018;-79
2021/12/10 13:24:00;;;;;;;6.95;3.28;;;3.70;99.90;;;;;;5095767;28;20104;-79